• Join FlightAware (Why Join?)
  • Login
  • US Flag 
09:47PM EST


 

Airport Tracker/Info


-or-


 

Live Flight TrackerFlight Track Log ✈ EGF2764 ✈ 29-Apr-2012 ✈ KMGM - KDFW

Flight Track Log - Related Links

Times and Time Zones

All times are in EDT time to prevent confusion due to time zone crossing. See the EGF2764 flight status page for this flight to view local times or setup timezone preferences in your user account.

Time Position Orientation Groundspeed Altitude Reporting Facility
EDT Latitude Longitude Course Direction KTS MPH feet Rate Location/Type
07:10PM 32.3024 -86.4215 275° West  Level FlightAware Approximate
07:11PM 32.3000 -86.5397 329° Northwest  Level FlightAware Approximate
07:12PM 32.3119 -86.5481 273° West 245 282 36,000  Level Atlanta Center
07:13PM 32.3161 -86.6417 272° West 251 289 6,300 -13,800 Descending Atlanta Center
07:14PM 32.3183 -86.7325 271° West 271 312 8,500 1,740 Climbing Atlanta Center
07:15PM 32.3203 -86.8286 274° West 282 325 9,800 900 Climbing Atlanta Center
07:16PM 32.3264 -86.9367 273° West 310 357 10,400 1,260 Climbing Atlanta Center
07:22PM 32.3514 -87.6481 272° West 373 429 18,800 1,440 Climbing Atlanta Center
07:25PM 32.3581 -87.9300 271° West 371 427 22,500 1,620 Climbing Memphis Center
07:26PM 32.3603 -88.0456 271° West 360 414 24,300 1,380 Climbing Memphis Center
07:27PM 32.3622 -88.1611 272° West 360 414 25,300 900 Climbing Memphis Center
07:28PM 32.3664 -88.2839 271° West 365 420 26,200 960 Climbing Memphis Center
07:29PM 32.3686 -88.4069 272° West 370 426 27,300 1,200 Climbing Memphis Center
07:30PM 32.3725 -88.5297 273° West 376 433 28,700 1,200 Climbing Memphis Center
07:31PM 32.3783 -88.6453 271° West 371 427 29,800 1,140 Climbing Memphis Center
07:32PM 32.3800 -88.7683 274° West 366 421 31,000 960 Climbing Memphis Center
07:33PM 32.3875 -88.8886 276° West 366 421 31,800 2,460 Climbing Memphis Center
07:34PM 32.3994 -89.0164 277° West 371 427 36,000 120 Climbing Memphis Center
07:35PM 32.4136 -89.1639 277° West 401 461 32,100 -1,320 Descending Memphis Center
07:36PM 32.4272 -89.2942 277° West 408 470 33,400 900 Climbing Memphis Center
07:37PM 32.4408 -89.4244 275° West 408 470 34,000 720 Climbing Memphis Center
07:38PM 32.4500 -89.5522 277° West 408 470 34,900 900 Climbing Memphis Center
07:39PM 32.4633 -89.6828 276° West 408 470 35,800 540 Climbing Memphis Center
07:40PM 32.4744 -89.8131 277° West 403 464 36,000 60 Climbing Memphis Center
07:41PM 32.4875 -89.9436 276° West 403 464 36,000  Level Memphis Center
07:42PM 32.4983 -90.0764 274° West 403 464 36,000  Level Memphis Center
07:43PM 32.5069 -90.2119 271° West 403 464 36,000  Level Memphis Center
07:44PM 32.5092 -90.3425 270° West 403 464 36,000  Level Memphis Center
07:45PM 32.5092 -90.4756 272° West 403 464 36,000  Level Memphis Center
07:46PM 32.5131 -90.6061 271° West 403 464 36,000  Level Memphis Center
07:47PM 32.5147 -90.7367 271° West 403 464 36,000  Level Memphis Center
07:48PM 32.5164 -90.8697 270° West 403 464 36,000  Level Memphis Center
07:49PM 32.5158 -91.0028 270° West 403 464 36,000  Level Memphis Center
07:50PM 32.5150 -91.1308 271° West 403 464 36,000  Level Memphis Center
07:52PM 32.5200 -91.4294 269° West 399 459 36,000  Level Fort Worth Center
07:53PM 32.5175 -91.5578 271° West 399 459 36,000  Level Fort Worth Center
07:54PM 32.5192 -91.6856 269° West 399 459 36,000  Level Fort Worth Center
07:55PM 32.5167 -91.8139 271° West 404 465 36,000  Level Fort Worth Center
07:56PM 32.5183 -91.9469 271° West 404 465 36,000  Level Fort Worth Center
07:57PM 32.5197 -92.0747 265° West 404 465 36,000  Level Fort Worth Center
07:58PM 32.5106 -92.2033 264° West 404 465 36,000  Level Fort Worth Center
07:59PM 32.4989 -92.3297 267° West 399 459 36,000  Level Fort Worth Center
08:00PM 32.4919 -92.4656 265° West 387 445 36,000  Level Fort Worth Center
08:01PM 32.4822 -92.5917 264° West 387 445 36,000  Level Fort Worth Center
08:02PM 32.4706 -92.7228 265° West 387 445 36,000  Level Fort Worth Center
08:03PM 32.4619 -92.8339 265° West 387 445 36,000  Level Fort Worth Center
08:04PM 32.4519 -92.9625 265° West 387 445 36,000  Level Fort Worth Center
08:05PM 32.4419 -93.0933 265° West 387 445 36,000  Level Fort Worth Center
08:06PM 32.4317 -93.2194 263° West 387 445 36,000  Level Fort Worth Center
08:07PM 32.4192 -93.3481 266° West 387 445 36,000  Level Fort Worth Center
08:08PM 32.4108 -93.4764 264° West 387 445 36,000  Level Fort Worth Center
08:09PM 32.4000 -93.6022 271° West 387 445 36,000  Level Fort Worth Center
08:10PM 32.4017 -93.7300 271° West 387 445 36,000  Level Fort Worth Center
08:11PM 32.4033 -93.8581 272° West 387 445 36,000  Level Fort Worth Center
08:12PM 32.4069 -93.9906 271° West 392 451 36,000  Level Fort Worth Center
08:13PM 32.4083 -94.1161 271° West 392 451 36,000  Level Fort Worth Center
08:14PM 32.4094 -94.2489 271° West 398 458 36,000  Level Fort Worth Center
08:15PM 32.4106 -94.3769 272° West 398 458 36,000  Level Fort Worth Center
08:16PM 32.4136 -94.5097 269° West 403 464 36,000  Level Fort Worth Center
08:17PM 32.4122 -94.6303 270° West 397 457 36,000  Level Fort Worth Center
08:18PM 32.4131 -94.7631 261° West 397 457 36,000  Level Fort Worth Center
08:19PM 32.3950 -94.8939 261° West 402 463 36,000  Level Fort Worth Center
08:20PM 32.3786 -95.0222 260° West 407 468 36,000  Level Fort Worth Center
08:21PM 32.3600 -95.1483 259° West 407 468 36,000  Level Fort Worth Center
08:22PM 32.3392 -95.2767 260° West 402 463 36,000 -480 Level Fort Worth Center
08:23PM 32.3206 -95.4000 273° West 397 457 35,100 -1,260 Descending Fort Worth Center
08:24PM 32.3267 -95.5278 275° West 386 444 33,500 -1,800 Descending Fort Worth Center
08:25PM 32.3369 -95.6553 274° West 387 445 31,500 -2,100 Descending Fort Worth Center
08:26PM 32.3450 -95.7978 275° West 387 445 29,400 -2,220 Descending Fort Worth Center
08:27PM 32.3550 -95.9256 273° West 392 451 27,100 -2,460 Descending Fort Worth Center
08:28PM 32.3606 -96.0608 274° West 407 468 24,500 -2,760 Descending Fort Worth Center
08:29PM 32.3683 -96.1958 274° West 412 474 21,600 -2,880 Descending Fort Worth Center
08:30PM 32.3756 -96.3236 273° West 397 457 18,800 -2,520 Descending Fort Worth Center
08:31PM 32.3808 -96.4294 308° West 384 442 16,600 -2,460 Descending Fort Worth Center
08:32PM 32.4442 -96.5272 316° Northwest 333 383 13,900 -2,640 Descending Fort Worth Center
08:33PM 32.5072 -96.6006 316° Northwest 344 396 11,400 -1,500 Descending Fort Worth Center
08:34PM 32.5786 -96.6836 313° West 335 386 11,000 -240 Descending Fort Worth Center
08:35PM 32.6311 -96.7497 321° Northwest 322 371 11,000  Level Fort Worth Center
08:36PM 32.6833 -96.8000 314° West 310 357 11,000  Level Dallas / Fort Worth TRACON
08:37PM 32.7500 -96.8833 348° North 280 322 11,000 -60 Level Dallas / Fort Worth TRACON
08:38PM 32.8167 -96.9000 360° North 282 325 10,900 -900 Descending Dallas / Fort Worth TRACON
08:39PM 32.8833 -96.9000 360° North 283 326 9,300 -1,800 Descending Dallas / Fort Worth TRACON
08:40PM 32.9667 -96.9000 360° North 254 292 7,300 -1,620 Descending Dallas / Fort Worth TRACON
08:41PM 33.0333 -96.9000 360° North 254 292 6,100 -660 Descending Dallas / Fort Worth TRACON
08:42PM 33.1000 -96.9000 320° Northwest 247 284 6,000 -360 Descending Dallas / Fort Worth TRACON
08:43PM 33.1500 -96.9500 253° West 242 278 5,400 -480 Descending Dallas / Fort Worth TRACON
08:44PM 33.1333 -97.0167 196° South 202 232 5,100 -840 Descending Dallas / Fort Worth TRACON
08:45PM 33.0833 -97.0333 196° South 167 192 3,800 -1,320 Descending Dallas / Fort Worth TRACON